createdAt,value
2023-02-01T00:00:20.911Z,21.17
2023-02-01T00:02:49.298Z,18.77
2023-02-01T00:05:17.562Z,25.40
2023-02-01T00:07:49.096Z,25.67
2023-02-01T00:10:17.064Z,24.63
2023-02-01T00:12:44.951Z,24.07
2023-02-01T00:15:13.333Z,29.10
2023-02-01T00:17:42.959Z,25.10
2023-02-01T00:20:12.298Z,25.70
2023-02-01T00:22:40.208Z,28.27
2023-02-01T00:25:08.996Z,22.10
2023-02-01T00:27:36.891Z,27.43
2023-02-01T00:30:05.470Z,28.70
2023-02-01T00:32:33.926Z,24.77
2023-02-01T00:35:03.561Z,25.27
2023-02-01T00:37:31.491Z,21.93
2023-02-01T00:39:59.320Z,25.07
2023-02-01T00:42:27.551Z,27.57
2023-02-01T00:44:55.539Z,27.30
2023-02-01T00:47:23.346Z,24.20
2023-02-01T00:49:51.234Z,25.33
2023-02-01T00:52:20.542Z,23.00
2023-02-01T00:54:48.519Z,29.77
2023-02-01T00:57:16.388Z,29.17
2023-02-01T00:59:44.340Z,26.90
2023-02-01T01:02:15.271Z,26.20
2023-02-01T01:04:43.132Z,29.50
2023-02-01T01:07:11.109Z,29.07
2023-02-01T01:09:40.726Z,26.07
2023-02-01T01:12:08.537Z,28.20
2023-02-01T01:14:36.488Z,22.00
2023-02-01T01:17:04.370Z,27.43
2023-02-01T01:19:32.224Z,29.17
2023-02-01T01:22:00.302Z,31.43
2023-02-01T01:24:28.192Z,27.90
2023-02-01T01:26:57.469Z,30.13
2023-02-01T01:29:25.441Z,30.27
2023-02-01T01:31:53.371Z,29.90
2023-02-01T01:34:21.320Z,32.43
2023-02-01T01:36:49.367Z,29.80
2023-02-01T01:39:17.203Z,33.40
2023-02-01T01:41:45.118Z,30.67
2023-02-01T01:44:46.233Z,33.70
2023-02-01T01:47:18.119Z,31.23
2023-02-01T01:49:46.596Z,31.73
2023-02-01T01:52:15.215Z,28.67
2023-02-01T01:54:47.427Z,32.70
2023-02-01T01:57:20.101Z,31.03
2023-02-01T01:59:55.235Z,28.30
2023-02-01T02:02:25.812Z,30.67
2023-02-01T02:04:53.911Z,28.33
2023-02-01T02:07:28.124Z,34.43
2023-02-01T02:10:00.767Z,38.30
2023-02-01T02:12:29.591Z,32.57
2023-02-01T02:14:57.892Z,27.77
2023-02-01T02:17:39.510Z,28.13
2023-02-01T02:20:31.691Z,31.13
2023-02-01T02:23:28.777Z,33.80
2023-02-01T02:26:15.624Z,28.10
2023-02-01T02:29:35.052Z,27.87
2023-02-01T02:32:48.027Z,28.60
2023-02-01T02:35:29.227Z,30.30
2023-02-01T02:38:07.701Z,32.60
2023-02-01T02:40:43.859Z,33.97
2023-02-01T02:43:35.232Z,30.87
2023-02-01T02:46:29.772Z,31.10
2023-02-01T02:49:05.717Z,34.37
2023-02-01T02:51:57.460Z,32.20
2023-02-01T02:54:49.998Z,34.30
2023-02-01T02:57:39.085Z,34.37
2023-02-01T03:00:29.043Z,29.20
2023-02-01T03:03:15.028Z,29.47
2023-02-01T03:05:46.340Z,28.17
2023-02-01T03:08:17.341Z,24.63
2023-02-01T03:10:57.916Z,32.80
2023-02-01T03:13:38.133Z,28.67
2023-02-01T03:16:14.432Z,35.20
2023-02-01T03:18:51.123Z,30.30
2023-02-01T03:21:26.333Z,30.77
2023-02-01T03:24:00.625Z,33.73
2023-02-01T03:26:30.802Z,30.07
2023-02-01T03:29:05.277Z,30.03
2023-02-01T03:31:33.224Z,30.37
2023-02-01T03:34:03.044Z,29.27
2023-02-01T03:36:33.547Z,24.43
2023-02-01T03:39:08.483Z,22.53
2023-02-01T03:41:42.985Z,21.53
2023-02-01T03:44:15.903Z,18.10
2023-02-01T03:46:48.582Z,20.07
2023-02-01T03:49:23.735Z,16.23
2023-02-01T03:51:53.659Z,18.53
2023-02-01T03:54:23.280Z,15.77
2023-02-01T03:56:54.537Z,21.97
2023-02-01T03:59:22.500Z,18.47
2023-02-01T04:01:50.400Z,21.50
2023-02-01T04:04:21.119Z,16.20
2023-02-01T04:06:49.095Z,19.53
2023-02-01T04:09:16.992Z,24.47
2023-02-01T04:11:46.589Z,22.07
2023-02-01T04:14:14.512Z,22.83
2023-02-01T04:16:42.510Z,17.33
2023-02-01T04:19:10.618Z,19.17
2023-02-01T04:21:38.933Z,20.80
2023-02-01T04:24:07.934Z,23.23
2023-02-01T04:26:36.202Z,22.20
2023-02-01T04:29:05.877Z,15.00
2023-02-01T04:31:35.089Z,22.23
2023-02-01T04:34:03.271Z,20.63
2023-02-01T04:36:31.265Z,17.03
2023-02-01T04:38:59.278Z,21.43
2023-02-01T04:41:27.320Z,17.93
2023-02-01T04:43:55.848Z,21.27
2023-02-01T04:46:25.306Z,16.47
2023-02-01T04:48:53.379Z,18.73
2023-02-01T04:51:21.601Z,19.03
2023-02-01T04:53:49.665Z,14.83
2023-02-01T04:56:18.077Z,18.83
2023-02-01T04:58:46.068Z,17.37
2023-02-01T05:01:14.144Z,16.13
2023-02-01T05:03:43.698Z,16.77
2023-02-01T05:06:11.630Z,17.17
2023-02-01T05:08:39.604Z,7.20
2023-02-01T05:11:28.415Z,8.23
2023-02-01T05:13:55.497Z,10.97
2023-02-01T05:16:23.350Z,7.67
2023-02-01T05:18:52.877Z,5.77
2023-02-01T05:21:21.003Z,3.67
2023-02-01T05:24:06.188Z,3.27
2023-02-01T05:26:34.754Z,3.93
2023-02-01T05:29:02.717Z,4.43
2023-02-01T05:31:31.044Z,2.93
2023-02-01T05:34:00.377Z,2.17
2023-02-01T05:36:28.526Z,3.17
2023-02-01T05:38:56.764Z,3.23
2023-02-01T05:41:24.590Z,2.10
2023-02-01T05:43:52.733Z,3.43
2023-02-01T05:46:21.119Z,3.80
2023-02-01T05:48:49.214Z,3.07
2023-02-01T05:51:18.524Z,4.37
2023-02-01T05:53:46.673Z,3.27
2023-02-01T05:56:14.543Z,3.30
2023-02-01T05:58:42.426Z,3.97
2023-02-01T06:01:10.498Z,3.40
2023-02-01T06:03:38.567Z,1.93
2023-02-01T06:06:07.018Z,1.87
2023-02-01T06:08:36.370Z,3.07
2023-02-01T06:11:06.201Z,2.23
2023-02-01T06:13:35.023Z,4.27
2023-02-01T06:16:04.317Z,2.10
2023-02-01T06:18:32.621Z,2.10
2023-02-01T06:21:01.737Z,4.27
2023-02-01T06:23:29.902Z,3.83
2023-02-01T06:26:04.190Z,4.67
2023-02-01T06:28:33.226Z,4.57
2023-02-01T06:31:07.733Z,4.13
2023-02-01T06:33:36.325Z,5.10
2023-02-01T06:36:07.439Z,4.47
2023-02-01T06:38:36.485Z,7.03
2023-02-01T06:41:06.503Z,6.30
2023-02-01T06:43:34.918Z,6.50
2023-02-01T06:46:04.515Z,9.43
2023-02-01T06:48:33.265Z,6.93
2023-02-01T06:51:01.365Z,8.83
2023-02-01T06:53:29.325Z,9.20
2023-02-01T06:55:58.564Z,9.93
2023-02-01T06:58:30.821Z,10.50
2023-02-01T07:00:58.817Z,7.03
2023-02-01T07:03:26.918Z,11.20
2023-02-01T07:05:59.740Z,12.37
2023-02-01T07:08:29.323Z,15.43
2023-02-01T07:10:57.244Z,14.27
2023-02-01T07:13:25.202Z,11.07
2023-02-01T07:15:54.493Z,14.73
2023-02-01T07:18:22.341Z,14.97
2023-02-01T07:20:52.659Z,14.07
2023-02-01T07:23:21.190Z,10.80
2023-02-01T07:25:49.518Z,13.80
2023-02-01T07:28:17.765Z,18.40
2023-02-01T07:30:51.751Z,17.77
2023-02-01T07:33:25.451Z,19.70
2023-02-01T07:35:55.029Z,19.53
2023-02-01T07:38:24.788Z,20.37
2023-02-01T07:40:52.629Z,21.73
2023-02-01T07:43:20.578Z,15.67
2023-02-01T07:45:54.137Z,21.37
2023-02-01T07:48:30.497Z,17.37
2023-02-01T07:51:03.191Z,14.90
2023-02-01T07:53:32.801Z,15.07
2023-02-01T07:56:00.798Z,18.47
2023-02-01T07:58:29.109Z,20.33
2023-02-01T08:01:15.090Z,21.63
2023-02-01T08:03:44.530Z,23.23
2023-02-01T08:06:12.465Z,29.87
2023-02-01T08:08:40.419Z,30.43
2023-02-01T08:11:09.316Z,37.70
2023-02-01T08:13:37.212Z,28.33
2023-02-01T08:16:07.119Z,33.47
2023-02-01T08:18:35.619Z,30.97
2023-02-01T08:21:07.515Z,28.90
2023-02-01T08:23:36.235Z,26.33
2023-02-01T08:26:08.981Z,29.20
2023-02-01T08:28:38.020Z,26.17
2023-02-01T08:31:07.841Z,26.90
2023-02-01T08:33:36.730Z,37.57
2023-02-01T08:36:07.653Z,25.10
2023-02-01T08:38:37.385Z,25.53
2023-02-01T08:41:09.538Z,25.17
2023-02-01T08:43:38.234Z,27.90
2023-02-01T08:46:06.471Z,25.10
2023-02-01T08:48:35.295Z,15.57
2023-02-01T08:51:04.720Z,17.03
2023-02-01T08:53:34.315Z,22.23
2023-02-01T08:56:02.777Z,13.83
2023-02-01T08:58:30.748Z,20.70
2023-02-01T09:00:58.654Z,18.93
2023-02-01T09:03:26.630Z,16.40
2023-02-01T09:06:02.304Z,20.93
2023-02-01T09:08:30.246Z,20.50
2023-02-01T09:11:03.460Z,21.60
2023-02-01T09:13:31.833Z,27.67
2023-02-01T09:16:00.781Z,25.20
2023-02-01T09:18:29.063Z,25.43
2023-02-01T09:20:57.092Z,26.70
2023-02-01T09:23:24.962Z,26.07
2023-02-01T09:25:53.278Z,23.07
2023-02-01T09:28:22.644Z,27.47
2023-02-01T09:30:50.766Z,24.20
2023-02-01T09:33:18.856Z,24.67
2023-02-01T09:35:46.805Z,22.87
2023-02-01T09:38:14.712Z,30.17
2023-02-01T09:40:48.671Z,21.33
2023-02-01T09:43:29.056Z,26.97
2023-02-01T09:46:05.296Z,24.23
2023-02-01T09:48:37.278Z,28.40
2023-02-01T09:51:09.169Z,28.70
2023-02-01T09:53:40.683Z,22.77
2023-02-01T09:56:14.206Z,26.30
2023-02-01T09:58:49.670Z,27.30
2023-02-01T10:01:20.831Z,24.40
2023-02-01T10:03:49.054Z,22.80
2023-02-01T10:06:42.215Z,22.87
2023-02-01T10:09:21.714Z,25.13
2023-02-01T10:12:04.176Z,22.83
2023-02-01T10:14:49.482Z,25.70
2023-02-01T10:17:29.515Z,22.20
2023-02-01T10:20:09.326Z,24.17
2023-02-01T10:23:08.730Z,23.33
2023-02-01T10:25:38.967Z,26.33
2023-02-01T10:28:06.902Z,26.63
2023-02-01T10:30:42.898Z,17.93
2023-02-01T10:33:18.553Z,27.77
2023-02-01T10:35:48.087Z,22.17
2023-02-01T10:38:26.952Z,20.33
2023-02-01T10:40:57.790Z,23.63
2023-02-01T10:43:25.696Z,19.80
2023-02-01T10:45:55.064Z,24.87
2023-02-01T10:48:23.067Z,22.63
2023-02-01T10:50:57.463Z,24.27
2023-02-01T10:53:31.985Z,24.40
2023-02-01T10:55:59.907Z,27.93
2023-02-01T10:58:30.361Z,17.80
2023-02-01T11:01:03.956Z,22.47
2023-02-01T11:03:43.245Z,23.43
2023-02-01T11:06:21.800Z,25.33
2023-02-01T11:08:51.379Z,21.43
2023-02-01T11:11:20.543Z,20.63
2023-02-01T11:13:56.505Z,23.27
2023-02-01T11:16:35.109Z,26.20
2023-02-01T11:19:03.496Z,25.80
2023-02-01T11:21:31.925Z,19.67
2023-02-01T11:24:04.172Z,24.37
2023-02-01T11:26:33.856Z,26.73
2023-02-01T11:29:06.388Z,19.27
2023-02-01T11:31:37.684Z,24.10
2023-02-01T11:34:11.489Z,23.87
2023-02-01T11:36:41.215Z,26.23
2023-02-01T11:39:23.441Z,18.73
2023-02-01T11:42:02.140Z,24.57
2023-02-01T11:44:35.678Z,27.47
2023-02-01T11:47:26.445Z,23.17
2023-02-01T11:49:56.375Z,27.90
2023-02-01T11:52:38.561Z,18.37
2023-02-01T11:55:21.209Z,21.13
2023-02-01T11:58:02.577Z,21.90
2023-02-01T12:00:53.194Z,22.40
2023-02-01T12:04:03.255Z,14.97
2023-02-01T12:06:41.036Z,15.50
2023-02-01T12:09:21.491Z,14.67
2023-02-01T12:12:00.789Z,10.77
2023-02-01T12:14:47.266Z,12.13
2023-02-01T12:17:38.299Z,10.70
2023-02-01T12:20:22.129Z,11.53
2023-02-01T12:23:02.840Z,12.27
2023-02-01T12:25:46.387Z,12.80
2023-02-01T12:28:44.778Z,13.83
2023-02-01T12:31:30.468Z,12.63
2023-02-01T12:34:12.799Z,14.80
2023-02-01T12:36:49.083Z,10.37
2023-02-01T12:39:25.637Z,8.80
2023-02-01T12:42:01.257Z,14.07
2023-02-01T12:44:37.434Z,9.20
2023-02-01T12:47:11.974Z,6.33
2023-02-01T12:49:49.532Z,7.30
2023-02-01T12:52:26.897Z,7.30
2023-02-01T12:55:01.225Z,3.77
2023-02-01T12:57:33.607Z,3.53
2023-02-01T13:00:12.263Z,2.73
2023-02-01T13:02:44.798Z,2.70
2023-02-01T13:05:19.632Z,3.43
2023-02-01T13:07:55.300Z,4.10
2023-02-01T13:10:31.349Z,3.83
2023-02-01T13:13:04.547Z,3.07
2023-02-01T13:15:38.628Z,3.13
2023-02-01T13:18:10.410Z,3.47
2023-02-01T13:20:44.966Z,3.07
2023-02-01T13:23:24.707Z,3.93
2023-02-01T13:25:55.288Z,4.27
2023-02-01T13:28:30.256Z,2.33
2023-02-01T13:31:17.038Z,2.37
2023-02-01T13:34:26.372Z,1.87
2023-02-01T13:37:07.369Z,3.07
2023-02-01T13:39:55.382Z,3.17
2023-02-01T13:42:27.104Z,2.47
2023-02-01T13:44:59.904Z,2.33
2023-02-01T13:47:31.991Z,2.33
2023-02-01T13:50:02.814Z,3.00
2023-02-01T13:52:44.307Z,6.63
2023-02-01T13:55:33.161Z,6.77
2023-02-01T13:58:27.290Z,4.50
2023-02-01T14:01:45.662Z,4.20
2023-02-01T14:04:47.128Z,4.97
2023-02-01T14:07:22.622Z,4.33
2023-02-01T14:09:50.650Z,7.33
2023-02-01T14:12:49.044Z,5.07
2023-02-01T14:15:26.750Z,6.43
2023-02-01T14:17:55.457Z,5.30
2023-02-01T14:20:52.386Z,4.50
2023-02-01T14:23:29.399Z,4.97
2023-02-01T14:26:19.665Z,6.20
2023-02-01T14:28:54.671Z,2.67
2023-02-01T14:31:45.839Z,4.47
2023-02-01T14:34:33.849Z,6.37
2023-02-01T14:37:07.675Z,5.30
2023-02-01T14:39:48.399Z,5.07
2023-02-01T14:42:24.801Z,7.57
2023-02-01T14:44:59.248Z,8.80
2023-02-01T14:47:32.002Z,9.17
2023-02-01T14:50:09.696Z,10.57
2023-02-01T14:52:43.599Z,6.27
2023-02-01T14:55:19.905Z,9.73
2023-02-01T14:57:51.862Z,10.77
2023-02-01T15:00:23.696Z,8.97
2023-02-01T15:02:52.672Z,8.07
2023-02-01T15:05:41.320Z,10.23
2023-02-01T15:08:19.670Z,9.83
2023-02-01T15:10:52.436Z,8.47
2023-02-01T15:13:23.149Z,9.77
2023-02-01T15:16:11.584Z,13.50
2023-02-01T15:18:40.365Z,13.57
2023-02-01T15:21:27.513Z,15.20
2023-02-01T15:24:13.160Z,13.40
2023-02-01T15:26:42.901Z,12.03
2023-02-01T15:29:15.389Z,15.80
2023-02-01T15:31:45.637Z,14.90
2023-02-01T15:34:14.416Z,12.87
2023-02-01T15:36:56.643Z,16.27
2023-02-01T15:39:32.091Z,11.93
2023-02-01T15:42:14.824Z,14.80
2023-02-01T15:44:45.049Z,12.33
2023-02-01T15:47:18.442Z,11.57
2023-02-01T15:49:49.454Z,13.47
2023-02-01T15:52:29.097Z,16.50
2023-02-01T15:54:59.558Z,14.40
2023-02-01T15:57:32.744Z,16.57
2023-02-01T16:00:04.248Z,12.60
2023-02-01T16:02:39.080Z,11.13
2023-02-01T16:05:29.088Z,16.13
2023-02-01T16:08:04.845Z,16.73
2023-02-01T16:10:40.000Z,15.73
2023-02-01T16:13:09.499Z,15.03
2023-02-01T16:15:38.042Z,18.83
2023-02-01T16:18:06.206Z,19.80
2023-02-01T16:20:36.368Z,17.23
2023-02-01T16:23:04.812Z,18.83
2023-02-01T16:25:32.741Z,22.57
2023-02-01T16:28:00.817Z,17.07
2023-02-01T16:30:30.218Z,18.67
2023-02-01T16:33:00.247Z,22.23
2023-02-01T16:35:32.353Z,21.13
2023-02-01T16:38:00.666Z,18.27
2023-02-01T16:40:28.567Z,15.23
2023-02-01T16:42:57.200Z,24.97
2023-02-01T16:45:25.576Z,24.07
2023-02-01T16:47:57.299Z,19.97
2023-02-01T16:50:27.590Z,19.43
2023-02-01T16:52:55.434Z,22.23
2023-02-01T16:55:24.302Z,23.83
2023-02-01T16:57:52.761Z,21.87
2023-02-01T17:00:25.088Z,22.77
2023-02-01T17:02:55.216Z,21.43
2023-02-01T17:05:23.715Z,26.00
2023-02-01T17:07:52.401Z,22.40
2023-02-01T17:10:33.135Z,28.67
2023-02-01T17:13:02.260Z,32.40
2023-02-01T17:15:34.902Z,29.47
2023-02-01T17:18:04.775Z,31.43
2023-02-01T17:20:33.843Z,26.17
2023-02-01T17:23:02.282Z,23.63
2023-02-01T17:25:32.788Z,29.03
2023-02-01T17:28:00.919Z,31.40
2023-02-01T17:30:29.558Z,29.80
2023-02-01T17:32:57.699Z,23.03
2023-02-01T17:35:29.084Z,25.53
2023-02-01T17:37:56.947Z,26.97
2023-02-01T17:40:25.132Z,24.37
2023-02-01T17:42:57.589Z,28.33
2023-02-01T17:45:36.410Z,24.10
2023-02-01T17:48:05.965Z,25.37
2023-02-01T17:50:38.861Z,27.80
2023-02-01T17:53:10.000Z,25.73
2023-02-01T17:55:39.787Z,28.13
2023-02-01T17:58:07.646Z,28.70
2023-02-01T18:00:37.958Z,26.87
2023-02-01T18:03:06.066Z,28.10
2023-02-01T18:05:43.242Z,27.03
2023-02-01T18:08:11.425Z,26.70
2023-02-01T18:10:39.244Z,24.97
2023-02-01T18:13:07.237Z,22.40
2023-02-01T18:15:36.152Z,26.77
2023-02-01T18:18:04.089Z,27.50
2023-02-01T18:20:32.072Z,25.20
2023-02-01T18:23:02.315Z,30.80
2023-02-01T18:25:37.140Z,24.33
2023-02-01T18:28:05.220Z,26.83
2023-02-01T18:30:34.776Z,28.63
2023-02-01T18:33:02.951Z,26.37
2023-02-01T18:35:34.334Z,32.40
2023-02-01T18:38:03.737Z,27.03
2023-02-01T18:40:33.923Z,25.90
2023-02-01T18:43:02.104Z,34.37
2023-02-01T18:45:32.778Z,31.70
2023-02-01T18:48:01.118Z,28.23
2023-02-01T18:50:30.701Z,26.93
2023-02-01T18:53:00.533Z,26.90
2023-02-01T18:55:32.509Z,26.53
2023-02-01T18:58:00.847Z,33.80
2023-02-01T19:00:29.965Z,26.20
2023-02-01T19:02:57.872Z,29.33
2023-02-01T19:05:26.816Z,24.77
2023-02-01T19:07:54.922Z,28.70
2023-02-01T19:10:24.459Z,26.93
2023-02-01T19:12:55.747Z,23.17
2023-02-01T19:15:23.797Z,27.97
2023-02-01T19:17:54.527Z,30.00
2023-02-01T19:20:24.928Z,23.53
2023-02-01T19:22:53.237Z,25.90
2023-02-01T19:25:23.181Z,28.70
2023-02-01T19:27:53.808Z,32.07
2023-02-01T19:30:23.315Z,27.73
2023-02-01T19:32:52.344Z,24.30
2023-02-01T19:35:22.401Z,27.77
2023-02-01T19:37:50.662Z,26.10
2023-02-01T19:40:20.834Z,27.53
2023-02-01T19:42:49.163Z,26.27
2023-02-01T19:45:19.022Z,24.27
2023-02-01T19:47:46.892Z,24.50
2023-02-01T19:50:19.800Z,19.37
2023-02-01T19:52:47.740Z,26.40
2023-02-01T19:55:15.945Z,19.67
2023-02-01T19:57:44.967Z,17.93
2023-02-01T20:00:13.404Z,14.03
2023-02-01T20:02:43.822Z,14.27
2023-02-01T20:05:11.927Z,15.30
2023-02-01T20:07:40.129Z,17.23
2023-02-01T20:10:09.806Z,14.33
2023-02-01T20:12:37.915Z,21.13
2023-02-01T20:15:08.087Z,20.17
2023-02-01T20:17:37.849Z,21.77
2023-02-01T20:20:07.861Z,19.00
2023-02-01T20:22:35.819Z,22.60
2023-02-01T20:25:04.568Z,18.57
2023-02-01T20:27:33.260Z,25.10
2023-02-01T20:30:01.232Z,21.53
2023-02-01T20:32:29.181Z,25.03
2023-02-01T20:34:56.998Z,25.20
2023-02-01T20:37:26.266Z,24.47
2023-02-01T20:39:54.534Z,27.27
2023-02-01T20:42:22.416Z,30.33
2023-02-01T20:44:50.289Z,26.57
2023-02-01T20:47:18.395Z,30.70
2023-02-01T20:49:46.240Z,31.67
2023-02-01T20:52:14.338Z,35.77
2023-02-01T20:54:43.895Z,31.07
2023-02-01T20:57:11.902Z,30.07
2023-02-01T20:59:39.831Z,35.73
2023-02-01T21:02:08.801Z,26.60
2023-02-01T21:04:37.334Z,26.37
2023-02-01T21:07:05.418Z,22.77
2023-02-01T21:09:33.275Z,26.27
2023-02-01T21:12:02.582Z,27.53
2023-02-01T21:14:30.808Z,27.00
2023-02-01T21:16:58.732Z,31.07
2023-02-01T21:19:26.999Z,26.87
2023-02-01T21:21:55.180Z,29.90
2023-02-01T21:24:23.194Z,30.97
2023-02-01T21:26:51.079Z,29.53
2023-02-01T21:29:20.404Z,28.90
2023-02-01T21:31:48.340Z,30.47
2023-02-01T21:34:16.390Z,25.13
2023-02-01T21:36:44.281Z,28.80
2023-02-01T21:39:12.702Z,25.47
2023-02-01T21:41:58.064Z,36.03
2023-02-01T21:44:27.436Z,26.90
2023-02-01T21:46:55.615Z,30.10
2023-02-01T21:49:25.524Z,26.83
2023-02-01T21:51:54.029Z,33.80
2023-02-01T21:54:22.037Z,26.87
2023-02-01T21:56:49.969Z,27.40
2023-02-01T21:59:18.086Z,29.07
2023-02-01T22:01:47.341Z,34.77
2023-02-01T22:04:15.155Z,30.93
2023-02-01T22:06:46.128Z,26.10
2023-02-01T22:09:17.929Z,30.27
2023-02-01T22:11:46.204Z,32.47
2023-02-01T22:14:14.765Z,30.43
2023-02-01T22:16:43.012Z,32.47
2023-02-01T22:19:13.514Z,28.30
2023-02-01T22:21:42.195Z,30.17
2023-02-01T22:24:11.599Z,28.67
2023-02-01T22:26:40.024Z,28.57
2023-02-01T22:29:08.633Z,27.07
2023-02-01T22:31:37.034Z,33.77
2023-02-01T22:34:05.017Z,30.07
2023-02-01T22:36:34.509Z,28.80
2023-02-01T22:39:02.363Z,28.37
2023-02-01T22:41:30.392Z,27.87
2023-02-01T22:43:58.261Z,26.23
2023-02-01T22:46:26.833Z,28.20
2023-02-01T22:48:55.406Z,29.20
2023-02-01T22:51:26.289Z,22.63
2023-02-01T22:53:58.022Z,33.93
2023-02-01T22:56:27.289Z,30.90
2023-02-01T22:58:56.510Z,26.87
2023-02-01T23:01:24.842Z,30.57
2023-02-01T23:03:56.702Z,33.53
2023-02-01T23:06:24.889Z,32.00
2023-02-01T23:08:57.566Z,26.67
2023-02-01T23:11:26.174Z,22.00
2023-02-01T23:13:54.416Z,30.97
2023-02-01T23:16:23.008Z,29.97
2023-02-01T23:18:51.306Z,26.00
2023-02-01T23:21:21.711Z,27.90
2023-02-01T23:23:52.079Z,29.67
2023-02-01T23:26:22.108Z,32.43
2023-02-01T23:28:52.473Z,29.37
2023-02-01T23:31:20.453Z,27.77
2023-02-01T23:33:49.086Z,34.60
2023-02-01T23:36:18.416Z,22.70
2023-02-01T23:38:47.528Z,27.40
2023-02-01T23:41:18.705Z,30.10
2023-02-01T23:44:00.458Z,33.67
2023-02-01T23:46:32.785Z,26.87
2023-02-01T23:49:01.729Z,26.03
2023-02-01T23:51:30.433Z,29.30
2023-02-01T23:53:58.900Z,34.13
2023-02-01T23:56:29.549Z,28.67
2023-02-01T23:58:58.864Z,27.23
